Time;durP1;ratioP1;P1;durP2;ratioP2;P2;SDS_P1;SDS_P2;PMS_P1;PMS_P2;Temp;Humidity;BMP_temperature;BMP_pressure;BME280_temperature;BME280_humidity;BME280_pressure;Samples;Min_cycle;Max_cycle;Signal;HPM_P1;HPM_P2
2022/03/25 00:01:52;;;;;;;56.72;26.45;;;;;;;9.39;55.35;103157.03;5022105;28;20483;-53
2022/03/25 00:04:18;;;;;;;58.72;25.95;;;;;;;9.34;56.07;103155.03;5015335;28;20080;-53
2022/03/25 00:06:43;;;;;;;55.55;26.40;;;;;;;9.30;55.88;103153.09;5005507;28;20751;-52
2022/03/25 00:09:08;;;;;;;57.95;25.80;;;;;;;9.28;55.78;103159.00;5020455;28;20037;-51
2022/03/25 00:11:34;;;;;;;58.35;27.20;;;;;;;9.26;55.76;103158.97;5012367;28;20353;-51
2022/03/25 00:13:59;;;;;;;56.05;27.48;;;;;;;9.22;56.42;103163.88;5012985;28;20055;-54
2022/03/25 00:16:25;;;;;;;59.88;27.13;;;;;;;9.19;56.41;103155.94;5012319;28;20124;-54
2022/03/25 00:18:50;;;;;;;59.15;26.63;;;;;;;9.14;56.54;103159.97;5012055;28;20475;-51
2022/03/25 00:21:15;;;;;;;62.22;27.02;;;;;;;9.11;56.79;103158.09;5008890;28;20072;-51
2022/03/25 00:23:41;;;;;;;56.20;26.35;;;;;;;9.09;56.92;103162.31;5020473;28;20052;-54
2022/03/25 00:26:06;;;;;;;53.22;25.85;;;;;;;9.07;56.49;103161.34;5023168;28;20098;-53
2022/03/25 00:28:31;;;;;;;60.00;26.58;;;;;;;9.04;56.90;103171.56;5001988;28;20037;-54
2022/03/25 00:30:57;;;;;;;59.55;26.38;;;;;;;9.03;57.00;103161.06;5020131;28;20412;-54
2022/03/25 00:33:22;;;;;;;61.45;27.73;;;;;;;8.99;56.53;103167.81;5009624;28;20554;-53
2022/03/25 00:35:47;;;;;;;58.00;26.30;;;;;;;8.99;56.87;103161.72;5015886;28;20041;-55
2022/03/25 00:38:13;;;;;;;60.10;27.48;;;;;;;8.96;56.71;103162.47;5008252;28;20071;-53
2022/03/25 00:40:38;;;;;;;60.33;27.70;;;;;;;8.93;56.85;103159.66;5006814;28;20182;-55
2022/03/25 00:43:06;;;;;;;65.22;28.27;;;;;;;8.90;56.71;103162.97;5008675;28;20131;-53
2022/03/25 00:45:32;;;;;;;58.45;27.35;;;;;;;8.87;56.92;103151.53;5019782;28;20036;-54
2022/03/25 00:47:59;;;;;;;62.65;28.73;;;;;;;8.83;57.10;103158.25;5017814;28;20055;-54
2022/03/25 00:50:25;;;;;;;61.85;28.10;;;;;;;8.83;56.95;103152.16;5015535;28;20052;-53
2022/03/25 00:52:50;;;;;;;58.08;27.83;;;;;;;8.79;57.53;103158.88;5012358;28;20041;-54
2022/03/25 00:55:16;;;;;;;58.97;28.35;;;;;;;8.81;57.04;103161.56;5022094;28;20548;-52
2022/03/25 00:57:42;;;;;;;63.13;29.33;;;;;;;8.83;56.89;103162.56;5011013;28;20044;-54
2022/03/25 01:00:09;;;;;;;61.40;28.50;;;;;;;8.77;57.51;103157.91;5009624;28;20044;-50
2022/03/25 01:02:34;;;;;;;68.25;28.92;;;;;;;8.73;57.06;103160.22;5021668;28;20048;-53
2022/03/25 01:05:00;;;;;;;63.70;29.13;;;;;;;8.71;56.91;103160.16;5021648;28;20516;-52
2022/03/25 01:07:25;;;;;;;63.97;29.05;;;;;;;8.68;56.67;103159.06;5015670;28;20698;-52
2022/03/25 01:09:50;;;;;;;62.10;28.77;;;;;;;8.66;56.88;103163.31;5012327;28;20071;-54
2022/03/25 01:12:16;;;;;;;61.13;29.48;;;;;;;8.59;57.54;103162.06;5012170;28;20029;-54
2022/03/25 01:14:42;;;;;;;60.97;28.58;;;;;;;8.55;57.91;103160.06;5020094;28;20786;-53
2022/03/25 01:17:08;;;;;;;62.97;28.67;;;;;;;8.52;58.39;103166.00;5023297;28;20053;-53
2022/03/25 01:19:34;;;;;;;62.60;29.52;;;;;;;8.49;59.03;103163.22;5017166;28;20447;-54
2022/03/25 01:22:03;;;;;;;66.90;31.08;;;;;;;8.44;58.84;103169.84;5012167;28;20554;-54
2022/03/25 01:24:28;;;;;;;63.97;29.35;;;;;;;8.42;58.43;103163.66;5008164;28;20045;-55
2022/03/25 01:26:54;;;;;;;65.63;31.25;;;;;;;8.38;58.59;103166.91;5021298;28;20553;-54
2022/03/25 01:29:19;;;;;;;65.95;31.17;;;;;;;8.37;58.52;103167.69;5021398;28;20055;-53
2022/03/25 01:31:45;;;;;;;69.30;29.77;;;;;;;8.33;58.86;103163.13;5018447;28;20048;-51
2022/03/25 01:34:10;;;;;;;66.55;30.83;;;;;;;8.31;59.11;103167.34;5024494;28;20473;-53
2022/03/25 01:36:37;;;;;;;68.63;31.05;;;;;;;8.30;59.27;103165.53;5004294;28;20048;-54
2022/03/25 01:39:03;;;;;;;69.47;30.48;;;;;;;8.28;59.11;103158.44;5017616;28;20234;-53
2022/03/25 01:41:29;;;;;;;71.03;31.77;;;;;;;8.23;59.53;103158.19;5020898;28;20079;-54
2022/03/25 01:43:57;;;;;;;72.20;32.10;;;;;;;8.21;59.93;103159.78;5019193;28;20048;-51
2022/03/25 01:46:23;;;;;;;74.22;32.45;;;;;;;8.17;60.12;103155.22;5021938;28;20122;-54
2022/03/25 01:48:50;;;;;;;74.88;33.05;;;;;;;8.14;60.11;103166.31;5015313;28;20049;-54
2022/03/25 01:51:22;;;;;;;73.10;32.47;;;;;;;8.18;59.80;103161.28;5016906;28;20049;-52
2022/03/25 01:53:48;;;;;;;70.22;32.35;;;;;;;8.12;60.09;103162.72;5020623;28;21088;-54
2022/03/25 01:56:20;;;;;;;71.45;32.88;;;;;;;8.10;60.66;103158.25;5011572;28;20393;-52
2022/03/25 01:58:45;;;;;;;73.00;32.72;;;;;;;8.07;60.61;103160.66;5011669;28;20989;-53
2022/03/25 02:01:11;;;;;;;75.05;32.58;;;;;;;8.07;61.08;103171.03;5017749;28;20079;-51
2022/03/25 02:03:37;;;;;;;70.57;31.90;;;;;;;8.06;61.18;103156.25;5018831;28;20433;-56
2022/03/25 02:06:04;;;;;;;76.15;33.88;;;;;;;8.05;61.06;103168.34;5020373;28;20064;-53
2022/03/25 02:08:30;;;;;;;79.25;33.83;;;;;;;8.01;61.19;103168.97;5007757;28;20077;-59
2022/03/25 02:10:56;;;;;;;81.97;34.75;;;;;;;7.96;61.54;103164.31;5016523;28;20753;-53
2022/03/25 02:13:22;;;;;;;75.72;34.22;;;;;;;7.94;61.58;103164.22;5018571;28;20044;-56
2022/03/25 02:15:48;;;;;;;80.20;34.90;;;;;;;7.89;61.58;103157.84;5023867;28;21028;-52
2022/03/25 02:18:18;;;;;;;73.95;34.38;;;;;;;7.88;61.52;103160.34;5016955;28;20060;-55
2022/03/25 02:20:44;;;;;;;83.55;35.25;;;;;;;7.86;61.86;103157.69;5015620;28;20127;-51
2022/03/25 02:23:11;;;;;;;83.88;35.75;;;;;;;7.82;62.31;103160.88;5024635;28;20049;-53
2022/03/25 02:25:37;;;;;;;76.38;34.13;;;;;;;7.84;62.15;103163.56;5016746;28;20121;-53
2022/03/25 02:28:04;;;;;;;80.75;35.38;;;;;;;7.85;61.72;103165.38;5018296;28;20523;-54
2022/03/25 02:30:32;;;;;;;79.40;35.22;;;;;;;7.77;62.18;103162.31;5010029;28;20079;-50
2022/03/25 02:33:01;;;;;;;78.88;34.75;;;;;;;7.71;62.77;103157.63;5016910;28;21660;-50
2022/03/25 02:35:46;;;;;;;83.15;35.90;;;;;;;7.70;62.58;103162.72;5020452;28;21069;-52
2022/03/25 02:38:15;;;;;;;82.72;34.03;;;;;;;7.67;62.44;103155.66;5011481;28;20745;-52
2022/03/25 02:40:41;;;;;;;81.20;34.45;;;;;;;7.63;62.69;103157.94;5011197;28;20132;-53
2022/03/25 02:43:08;;;;;;;78.50;34.10;;;;;;;7.57;62.99;103158.47;5020778;28;20416;-50
2022/03/25 02:45:33;;;;;;;79.25;35.38;;;;;;;7.58;62.70;103159.38;5011563;28;20041;-54
2022/03/25 02:48:02;;;;;;;86.38;36.95;;;;;;;7.52;63.35;103162.50;5014190;28;20759;-51
2022/03/25 02:50:29;;;;;;;80.35;35.80;;;;;;;7.48;63.45;103160.50;5017231;28;20040;-53
2022/03/25 02:52:55;;;;;;;88.05;37.25;;;;;;;7.48;63.14;103157.91;5011331;28;20438;-52
2022/03/25 02:55:21;;;;;;;89.43;37.92;;;;;;;7.45;63.80;103157.72;5024287;28;20563;-50
2022/03/25 02:57:46;;;;;;;88.90;38.63;;;;;;;7.41;63.90;103158.34;5000914;28;20136;-55
2022/03/25 03:00:12;;;;;;;87.85;37.78;;;;;;;7.40;63.71;103158.22;5022751;28;20052;-53
2022/03/25 03:02:38;;;;;;;89.35;38.15;;;;;;;7.35;63.63;103157.94;5011317;28;20049;-55
2022/03/25 03:05:07;;;;;;;95.95;39.60;;;;;;;7.39;63.31;103165.13;5024563;28;20037;-54
2022/03/25 03:07:34;;;;;;;94.38;38.78;;;;;;;7.27;63.82;103160.06;5011460;28;20325;-55
2022/03/25 03:09:59;;;;;;;91.72;38.88;;;;;;;7.23;64.27;103158.09;5014937;28;20387;-53
2022/03/25 03:12:25;;;;;;;93.18;39.25;;;;;;;7.19;64.47;103155.22;5013256;28;20445;-55
2022/03/25 03:14:51;;;;;;;93.22;39.13;;;;;;;7.17;64.76;103160.28;5023561;28;20041;-51
2022/03/25 03:17:16;;;;;;;93.07;38.65;;;;;;;7.15;64.50;103159.28;5011692;28;20045;-53
2022/03/25 03:19:41;;;;;;;93.30;39.53;;;;;;;7.12;64.78;103158.22;5017363;28;20037;-55
2022/03/25 03:22:07;;;;;;;95.35;39.60;;;;;;;7.10;64.83;103162.38;5013062;28;20045;-54
2022/03/25 03:24:32;;;;;;;95.18;39.08;;;;;;;7.08;64.73;103159.69;5011800;28;20116;-54
2022/03/25 03:26:58;;;;;;;98.93;40.05;;;;;;;7.06;65.04;103163.00;5019106;28;20187;-53
2022/03/25 03:29:24;;;;;;;98.22;41.75;;;;;;;7.02;65.01;103158.41;5006004;28;20496;-55
2022/03/25 03:31:51;;;;;;;94.80;40.15;;;;;;;6.98;65.26;103157.31;5017173;28;20361;-54
2022/03/25 03:34:17;;;;;;;95.18;40.17;;;;;;;6.95;65.35;103154.53;5017567;28;20068;-53
2022/03/25 03:36:42;;;;;;;100.18;40.47;;;;;;;6.90;65.44;103149.03;5007527;28;21013;-54
2022/03/25 03:39:08;;;;;;;100.25;40.85;;;;;;;6.88;65.54;103148.06;5011578;28;20125;-53
2022/03/25 03:41:33;;;;;;;104.80;42.72;;;;;;;6.86;65.87;103148.75;5019237;28;20547;-52
2022/03/25 03:43:59;;;;;;;101.03;42.08;;;;;;;6.91;65.17;103156.03;5015258;28;20044;-51
2022/03/25 03:46:24;;;;;;;95.90;41.70;;;;;;;6.88;65.48;103150.66;5007014;28;20520;-53
2022/03/25 03:48:50;;;;;;;105.75;42.72;;;;;;;6.86;65.68;103152.25;5011242;28;20412;-55
2022/03/25 03:51:15;;;;;;;98.80;41.00;;;;;;;6.85;65.38;103149.53;5017965;28;20211;-53
2022/03/25 03:53:41;;;;;;;104.32;42.33;;;;;;;6.79;66.18;103152.63;5008812;28;20045;-54
2022/03/25 03:56:06;;;;;;;108.65;43.78;;;;;;;6.78;65.73;103158.63;5019784;28;20037;-55
2022/03/25 03:58:32;;;;;;;105.25;43.20;;;;;;;6.76;66.07;103151.56;5003306;28;20109;-54
2022/03/25 04:00:57;;;;;;;102.88;41.95;;;;;;;6.75;65.69;103157.53;5013021;28;20041;-53
2022/03/25 04:03:23;;;;;;;105.40;43.00;;;;;;;6.70;66.15;103154.66;5021331;28;20073;-52
2022/03/25 04:05:48;;;;;;;110.57;42.53;;;;;;;6.69;66.11;103150.25;5022859;28;20053;-51
2022/03/25 04:08:13;;;;;;;105.63;42.95;;;;;;;6.67;66.33;103164.81;5010362;28;20483;-55
2022/03/25 04:10:39;;;;;;;103.28;41.33;;;;;;;6.68;65.88;103157.94;5014328;28;20515;-51
2022/03/25 04:13:04;;;;;;;109.97;42.67;;;;;;;6.60;66.92;103157.41;5017339;28;20052;-53
2022/03/25 04:15:30;;;;;;;116.45;44.92;;;;;;;6.57;67.05;103165.00;5014318;28;20029;-52
2022/03/25 04:17:56;;;;;;;106.20;43.53;;;;;;;6.58;67.09;103165.91;5022182;28;20076;-50
2022/03/25 04:20:22;;;;;;;110.90;44.85;;;;;;;6.57;67.11;103159.81;5015312;28;20076;-52
2022/03/25 04:22:47;;;;;;;114.18;44.55;;;;;;;6.56;66.98;103165.78;5014509;28;21057;-53
2022/03/25 04:25:14;;;;;;;109.80;43.13;;;;;;;6.55;67.37;103171.78;5018512;28;20045;-56
2022/03/25 04:27:53;;;;;;;115.10;45.33;;;;;;;6.53;67.00;103174.25;5013782;28;20686;-51
2022/03/25 04:30:24;;;;;;;116.57;46.22;;;;;;;6.49;67.13;103168.78;5017840;28;20709;-53
2022/03/25 04:32:50;;;;;;;116.85;45.28;;;;;;;6.43;67.59;103166.69;5018240;28;20514;-53
2022/03/25 04:35:16;;;;;;;121.07;46.33;;;;;;;6.42;67.71;103169.16;5023325;28;20052;-53
2022/03/25 04:37:41;;;;;;;115.72;44.38;;;;;;;6.39;67.80;103167.28;5016926;28;20032;-52
2022/03/25 04:40:08;;;;;;;116.97;45.10;;;;;;;6.38;67.57;103172.34;5020810;28;20051;-53
2022/03/25 04:42:33;;;;;;;108.30;44.78;;;;;;;6.38;67.46;103162.88;5016603;28;20059;-50
2022/03/25 04:44:59;;;;;;;117.43;46.15;;;;;;;6.43;67.17;103166.69;5020570;28;20040;-51
2022/03/25 04:47:24;;;;;;;119.65;47.10;;;;;;;6.36;67.59;103168.75;5023972;28;20488;-54
2022/03/25 04:49:49;;;;;;;118.95;46.50;;;;;;;6.32;67.91;103170.25;5020487;28;20106;-53
2022/03/25 04:52:15;;;;;;;117.07;45.70;;;;;;;6.31;67.39;103168.44;5014366;28;20057;-51
2022/03/25 04:54:40;;;;;;;117.47;45.22;;;;;;;6.29;67.39;103163.94;5018787;28;20045;-54
2022/03/25 04:57:05;;;;;;;115.82;45.95;;;;;;;6.26;67.72;103169.84;5021276;28;20049;-50
2022/03/25 04:59:31;;;;;;;119.85;45.25;;;;;;;6.30;67.56;103176.09;5020451;28;20051;-52
2022/03/25 05:01:56;;;;;;;119.18;45.63;;;;;;;6.25;67.90;103177.50;5016385;28;20508;-55
2022/03/25 05:04:22;;;;;;;121.63;46.95;;;;;;;6.24;67.91;103174.00;5016116;28;20040;-55
2022/03/25 05:06:47;;;;;;;117.93;44.72;;;;;;;6.24;67.73;103174.00;5015212;28;22046;-53
2022/03/25 05:09:13;;;;;;;118.47;45.80;;;;;;;6.18;67.64;103176.19;5026960;28;20352;-54
2022/03/25 05:11:39;;;;;;;117.82;45.38;;;;;;;6.18;67.79;103181.38;5026832;28;20068;-55
2022/03/25 05:14:04;;;;;;;113.65;45.88;;;;;;;6.17;67.47;103176.97;5015480;28;20119;-52
2022/03/25 05:16:30;;;;;;;119.60;45.65;;;;;;;6.13;67.94;103177.56;5014984;28;20045;-54
2022/03/25 05:18:55;;;;;;;120.60;45.70;;;;;;;6.10;68.17;103187.69;5021920;28;20597;-53
2022/03/25 05:21:20;;;;;;;122.80;45.83;;;;;;;6.12;68.02;103183.53;5016646;28;20152;-53
2022/03/25 05:23:46;;;;;;;114.82;43.80;;;;;;;6.13;68.13;103187.03;5023168;28;20041;-53
2022/03/25 05:26:12;;;;;;;121.65;46.58;;;;;;;6.15;68.24;103190.63;5011709;28;20044;-55
2022/03/25 05:28:37;;;;;;;121.50;46.55;;;;;;;6.14;68.36;103192.31;5017050;28;20930;-55
2022/03/25 05:31:03;;;;;;;119.78;45.45;;;;;;;6.17;68.30;103184.75;5011025;28;20775;-56
2022/03/25 05:33:28;;;;;;;122.50;46.33;;;;;;;6.22;68.33;103185.09;5019819;28;20065;-55
2022/03/25 05:35:54;;;;;;;128.82;46.85;;;;;;;6.20;68.71;103189.25;5018239;28;20076;-50
2022/03/25 05:38:19;;;;;;;126.40;46.85;;;;;;;6.19;69.39;103188.34;5022764;28;20056;-51
2022/03/25 05:40:45;;;;;;;122.78;46.28;;;;;;;6.19;69.13;103193.53;5017266;28;20134;-55
2022/03/25 05:43:12;;;;;;;120.82;46.05;;;;;;;6.23;69.21;103200.69;5016214;28;20460;-52
2022/03/25 05:45:37;;;;;;;122.03;46.00;;;;;;;6.28;69.23;103191.53;5017253;28;20067;-55
2022/03/25 05:48:03;;;;;;;135.30;49.95;;;;;;;6.30;69.43;103197.72;5017005;28;20041;-51
2022/03/25 05:50:28;;;;;;;129.65;49.40;;;;;;;6.36;69.17;103198.16;5015487;28;20133;-54
2022/03/25 05:52:54;;;;;;;133.55;49.03;;;;;;;6.41;69.37;103194.16;4997024;28;20309;-54
2022/03/25 05:55:19;;;;;;;130.93;48.00;;;;;;;6.49;69.29;103197.28;5018636;28;20390;-54
2022/03/25 05:57:45;;;;;;;126.35;48.35;;;;;;;6.57;69.43;103200.38;5013911;28;20083;-54
2022/03/25 06:00:14;;;;;;;130.20;46.70;;;;;;;6.64;69.28;103190.53;5024782;28;20056;-53
2022/03/25 06:02:40;;;;;;;129.02;48.72;;;;;;;6.73;69.18;103198.00;5012638;28;20501;-51
2022/03/25 06:05:06;;;;;;;126.15;48.70;;;;;;;6.81;69.19;103195.13;5017244;28;20557;-55
2022/03/25 06:07:39;;;;;;;128.50;49.63;;;;;;;6.92;68.93;103195.81;5018659;28;20828;-54
2022/03/25 06:10:07;;;;;;;125.78;47.70;;;;;;;7.02;68.27;103205.97;5019128;28;20063;-51
2022/03/25 06:12:33;;;;;;;127.82;48.95;;;;;;;7.21;68.17;103201.19;5010243;28;20033;-54
2022/03/25 06:14:58;;;;;;;120.32;47.40;;;;;;;7.65;67.38;103208.28;5019572;28;20052;-51
2022/03/25 06:17:24;;;;;;;110.78;46.65;;;;;;;8.12;66.19;103206.88;5019441;28;20063;-56
2022/03/25 06:19:49;;;;;;;107.20;47.35;;;;;;;8.53;64.21;103203.31;5020761;28;20052;-56
2022/03/25 06:22:15;;;;;;;115.35;48.65;;;;;;;9.10;63.36;103212.66;5016395;28;20047;-54
2022/03/25 06:24:40;;;;;;;115.07;48.80;;;;;;;9.67;62.19;103208.06;5010624;28;20808;-55
2022/03/25 06:27:05;;;;;;;115.00;49.22;;;;;;;10.15;59.67;103207.16;5023818;28;20049;-55
2022/03/25 06:29:31;;;;;;;107.75;49.65;;;;;;;10.65;59.75;103210.59;5028260;28;20067;-55
2022/03/25 06:31:56;;;;;;;108.82;51.22;;;;;;;10.95;57.34;103215.63;5019369;28;20048;-54
2022/03/25 06:34:23;;;;;;;110.78;51.08;;;;;;;11.38;55.69;103215.06;5017170;28;20033;-54
2022/03/25 06:36:49;;;;;;;129.98;52.33;;;;;;;11.64;55.18;103211.06;5012703;28;20055;-55
2022/03/25 06:39:15;;;;;;;145.02;53.10;;;;;;;11.95;53.84;103216.91;5013783;28;20049;-55
2022/03/25 06:41:40;;;;;;;115.97;53.15;;;;;;;12.06;53.88;103220.00;5013038;28;20041;-55
2022/03/25 06:44:06;;;;;;;108.03;53.30;;;;;;;12.43;52.27;103226.00;5021629;28;20496;-55
2022/03/25 06:46:32;;;;;;;108.47;53.30;;;;;;;12.19;53.52;103235.41;5012506;28;20065;-54
2022/03/25 06:48:58;;;;;;;113.05;53.97;;;;;;;12.41;53.00;103226.75;5023914;28;20087;-52
2022/03/25 06:51:23;;;;;;;120.82;57.08;;;;;;;12.44;51.99;103233.00;4998106;28;20998;-53
2022/03/25 06:53:49;;;;;;;108.90;53.72;;;;;;;12.86;51.67;103230.44;5014577;28;20040;-55
2022/03/25 06:56:15;;;;;;;110.80;54.67;;;;;;;12.99;50.48;103224.88;5017439;28;20471;-54
2022/03/25 06:58:41;;;;;;;115.35;56.45;;;;;;;12.83;50.79;103220.72;5014500;28;20069;-53
2022/03/25 07:01:06;;;;;;;111.35;55.72;;;;;;;12.88;50.96;103231.38;5021503;28;20090;-56
2022/03/25 07:03:33;;;;;;;107.80;55.97;;;;;;;13.12;50.58;103228.88;5016759;28;20052;-51
2022/03/25 07:06:00;;;;;;;108.82;55.58;;;;;;;13.35;50.37;103229.00;5016856;28;20045;-54
2022/03/25 07:08:29;;;;;;;109.40;55.72;;;;;;;13.74;49.30;103233.97;5020982;28;20033;-58
2022/03/25 07:10:55;;;;;;;113.32;55.42;;;;;;;13.77;49.17;103234.13;5010577;28;20045;-54
2022/03/25 07:13:20;;;;;;;111.38;56.88;;;;;;;13.46;49.42;103237.28;5020938;28;20032;-55
2022/03/25 07:15:46;;;;;;;105.28;56.63;;;;;;;13.90;48.22;103233.75;5026208;28;20037;-55
2022/03/25 07:18:11;;;;;;;110.55;56.15;;;;;;;13.99;48.47;103234.06;4995095;28;20079;-52
2022/03/25 07:20:36;;;;;;;105.72;56.78;;;;;;;14.15;47.75;103236.41;5006209;28;20049;-55
2022/03/25 07:23:04;;;;;;;105.35;55.95;;;;;;;14.84;47.36;103239.72;5017958;28;20045;-52
2022/03/25 07:25:31;;;;;;;106.30;57.33;;;;;;;15.13;45.90;103235.41;5002969;28;20773;-56
2022/03/25 07:27:57;;;;;;;103.70;54.25;;;;;;;15.01;45.89;103242.91;5010732;28;20041;-53
2022/03/25 07:30:23;;;;;;;103.15;54.42;;;;;;;15.21;45.53;103241.81;5021813;28;20040;-54
2022/03/25 07:32:48;;;;;;;100.22;55.05;;;;;;;15.48;45.99;103249.69;5006028;28;20053;-54
2022/03/25 07:35:14;;;;;;;100.00;54.95;;;;;;;15.44;44.91;103248.69;5016460;28;20047;-52
2022/03/25 07:37:43;;;;;;;97.32;54.30;;;;;;;15.30;45.93;103251.75;5012662;28;20048;-53
2022/03/25 07:40:11;;;;;;;93.93;52.65;;;;;;;15.40;45.14;103261.69;5014689;28;20049;-53
2022/03/25 07:42:41;;;;;;;96.43;54.85;;;;;;;15.24;45.82;103260.34;4996933;28;20037;-51
2022/03/25 07:45:11;;;;;;;97.28;55.05;;;;;;;14.94;46.76;103265.44;5010775;28;20108;-52
2022/03/25 07:47:48;;;;;;;97.15;54.30;;;;;;;14.74;46.84;103263.00;5019549;28;20136;-53
2022/03/25 07:50:16;;;;;;;95.95;53.45;;;;;;;13.99;49.19;103265.53;5010370;28;20049;-53
2022/03/25 07:52:42;;;;;;;102.32;53.53;;;;;;;13.66;49.93;103269.50;5001181;28;20262;-52
2022/03/25 07:55:09;;;;;;;96.60;52.92;;;;;;;13.66;49.89;103270.38;5017826;28;20080;-49
2022/03/25 07:57:35;;;;;;;99.88;52.35;;;;;;;13.50;50.21;103278.50;5019278;28;20064;-51
2022/03/25 08:00:03;;;;;;;99.55;51.92;;;;;;;13.18;50.60;103276.28;5006845;28;20303;-53
2022/03/25 08:02:29;;;;;;;97.45;50.28;;;;;;;13.05;51.49;103284.47;5006339;28;20068;-54
2022/03/25 08:04:54;;;;;;;98.38;50.90;;;;;;;13.46;50.31;103288.78;5015532;28;20126;-53
2022/03/25 08:07:20;;;;;;;96.53;50.13;;;;;;;13.51;50.11;103277.66;5015107;28;20431;-51
2022/03/25 08:09:46;;;;;;;91.70;49.72;;;;;;;13.83;49.81;103284.16;5030582;28;20036;-52
2022/03/25 08:12:11;;;;;;;94.90;50.25;;;;;;;13.54;49.84;103293.50;5011950;28;21022;-53
2022/03/25 08:14:36;;;;;;;99.68;48.97;;;;;;;13.44;50.11;103295.69;5016720;28;20106;-57
2022/03/25 08:17:02;;;;;;;97.15;49.20;;;;;;;13.40;50.29;103292.06;5019967;28;20045;-52
2022/03/25 08:19:27;;;;;;;94.65;49.10;;;;;;;13.28;50.43;103296.81;5015709;28;20441;-53
2022/03/25 08:21:53;;;;;;;94.72;47.55;;;;;;;13.64;49.78;103300.00;5020333;28;20144;-53
2022/03/25 08:28:02;;;;;;;85.28;46.20;;;;;;;13.58;48.12;103298.03;5025160;28;20668;-54
2022/03/25 08:29:57;;;;;;;87.20;45.72;;;;;;;14.02;48.27;103299.75;5004788;28;20339;-54
2022/03/25 08:32:23;;;;;;;85.28;46.50;;;;;;;13.88;47.31;103308.81;5023897;28;20545;-54
2022/03/25 08:34:48;;;;;;;83.88;44.70;;;;;;;14.26;46.31;103299.78;5018711;28;22534;-53
2022/03/25 08:37:13;;;;;;;86.68;45.05;;;;;;;14.43;46.14;103306.56;5025981;28;20202;-55
2022/03/25 08:39:39;;;;;;;86.20;44.70;;;;;;;14.61;45.84;103304.59;5017574;28;20093;-53
2022/03/25 08:42:08;;;;;;;81.97;43.58;;;;;;;14.66;45.13;103307.38;5021623;28;20044;-52
2022/03/25 08:44:33;;;;;;;79.47;42.58;;;;;;;14.77;44.47;103307.75;5031572;28;20041;-53
2022/03/25 08:46:58;;;;;;;80.30;43.03;;;;;;;14.91;44.42;103312.66;5019175;28;20091;-54
2022/03/25 08:49:24;;;;;;;77.05;42.75;;;;;;;15.09;43.25;103311.47;5010178;28;20533;-52
2022/03/25 08:51:49;;;;;;;77.50;42.05;;;;;;;14.39;44.05;103312.56;5020326;28;20453;-50
2022/03/25 08:54:15;;;;;;;72.32;40.47;;;;;;;14.93;43.51;103313.59;4997153;28;20505;-52
2022/03/25 08:56:40;;;;;;;73.65;40.97;;;;;;;15.02;43.12;103305.13;5007355;28;20275;-52
2022/03/25 08:59:05;;;;;;;77.88;41.33;;;;;;;15.01;43.00;103306.84;5019107;28;20048;-54
2022/03/25 09:01:31;;;;;;;74.63;41.75;;;;;;;15.23;43.31;103303.22;5021532;28;20140;-50
2022/03/25 09:03:56;;;;;;;79.95;41.45;;;;;;;15.15;42.85;103314.31;5015139;28;20048;-54
2022/03/25 09:06:23;;;;;;;72.65;40.33;;;;;;;15.27;43.34;103312.09;5019114;28;20048;-51
2022/03/25 09:08:50;;;;;;;80.28;40.70;;;;;;;15.32;42.66;103311.38;5016738;28;20460;-53
2022/03/25 09:11:15;;;;;;;77.55;39.45;;;;;;;15.14;42.47;103321.28;5024200;28;20045;-50
2022/03/25 09:13:40;;;;;;;73.93;39.47;;;;;;;15.07;42.45;103310.53;5024865;28;20059;-50
2022/03/25 09:16:07;;;;;;;69.53;39.50;;;;;;;14.88;42.74;103312.53;5012624;28;20071;-51
2022/03/25 09:18:32;;;;;;;78.55;41.15;;;;;;;14.59;43.59;103326.38;5003166;28;20041;-53
2022/03/25 09:20:57;;;;;;;75.85;39.03;;;;;;;14.63;44.89;103320.41;5019154;28;20052;-52
2022/03/25 09:23:23;;;;;;;80.30;39.25;;;;;;;14.84;43.88;103322.88;5013802;28;20056;-53
2022/03/25 09:25:48;;;;;;;70.25;38.60;;;;;;;15.27;43.80;103322.59;5027048;28;20122;-50
2022/03/25 09:28:14;;;;;;;71.18;38.55;;;;;;;15.29;43.56;103321.81;5015170;28;20442;-54
2022/03/25 09:30:40;;;;;;;76.55;40.42;;;;;;;15.77;42.93;103325.16;5013591;28;20060;-53
2022/03/25 09:33:07;;;;;;;71.75;39.50;;;;;;;15.91;42.01;103319.41;5021203;28;20056;-54
2022/03/25 09:35:33;;;;;;;73.10;39.40;;;;;;;15.38;42.41;103323.84;5023606;28;20375;-50
2022/03/25 09:37:58;;;;;;;72.75;38.85;;;;;;;15.78;42.16;103320.78;5008156;28;20049;-50
2022/03/25 09:40:26;;;;;;;75.55;39.03;;;;;;;15.67;42.31;103317.81;5016701;28;20045;-53
2022/03/25 09:42:55;;;;;;;67.78;38.60;;;;;;;15.92;41.95;103321.22;5005885;28;20476;-52
2022/03/25 09:45:22;;;;;;;67.22;36.85;;;;;;;16.06;40.76;103314.59;5016510;28;20036;-51
2022/03/25 09:47:48;;;;;;;74.55;38.67;;;;;;;16.31;40.52;103318.84;5021483;28;20127;-54
2022/03/25 09:50:17;;;;;;;72.20;38.88;;;;;;;15.89;40.83;103316.72;5019211;28;20128;-54
2022/03/25 09:52:44;;;;;;;64.07;34.47;;;;;;;15.55;38.75;103313.91;5008024;28;20299;-52
2022/03/25 09:55:11;;;;;;;60.72;34.13;;;;;;;15.53;38.34;103318.22;5019112;28;20037;-54
2022/03/25 09:57:37;;;;;;;59.70;34.95;;;;;;;15.45;39.63;103317.94;5015870;28;20214;-54
2022/03/25 10:00:09;;;;;;;59.08;32.08;;;;;;;15.34;38.12;103320.22;5021072;28;20507;-52
2022/03/25 10:02:34;;;;;;;59.38;31.35;;;;;;;15.46;37.74;103324.97;5017367;28;20414;-51
2022/03/25 10:04:59;;;;;;;59.70;32.42;;;;;;;15.94;38.33;103311.59;5017254;28;20029;-53
2022/03/25 10:07:27;;;;;;;65.95;33.28;;;;;;;16.10;38.11;103322.63;5007834;28;20044;-54
2022/03/25 10:10:11;;;;;;;58.28;31.85;;;;;;;16.34;36.33;103311.03;5014952;28;20508;-53
2022/03/25 10:12:38;;;;;;;55.30;29.52;;;;;;;16.23;35.04;103318.59;5004888;28;20029;-53
2022/03/25 10:15:11;;;;;;;58.15;29.75;;;;;;;16.18;35.47;103320.22;5018903;28;20107;-53
2022/03/25 10:17:50;;;;;;;63.67;31.40;;;;;;;16.05;35.39;103311.06;5019446;28;20045;-54
2022/03/25 10:20:17;;;;;;;54.47;30.17;;;;;;;16.46;35.08;103319.28;5019747;28;20040;-53
2022/03/25 10:23:11;;;;;;;56.75;29.38;;;;;;;16.35;34.98;103316.31;4999630;28;20790;-53
2022/03/25 10:25:38;;;;;;;52.75;27.25;;;;;;;16.40;34.18;103308.59;5021291;28;20044;-53
2022/03/25 10:28:05;;;;;;;55.63;29.48;;;;;;;15.85;34.08;103306.06;5013485;28;20068;-50
2022/03/25 10:30:38;;;;;;;61.05;29.05;;;;;;;16.09;35.38;103297.19;5012111;28;20044;-50
2022/03/25 10:33:19;;;;;;;58.03;29.20;;;;;;;16.20;35.00;103301.00;5006762;28;20040;-52
2022/03/25 10:36:04;;;;;;;58.20;29.23;;;;;;;16.70;34.03;103309.44;5018763;28;20127;-51
2022/03/25 10:38:42;;;;;;;58.13;27.88;;;;;;;16.46;34.11;103308.75;5006250;28;20412;-54
2022/03/25 10:41:09;;;;;;;58.22;29.65;;;;;;;16.31;33.77;103303.94;5017267;28;20044;-52
2022/03/25 10:43:35;;;;;;;54.25;29.35;;;;;;;16.11;32.40;103297.19;5011625;28;20040;-52
2022/03/25 10:46:00;;;;;;;56.70;29.65;;;;;;;15.80;32.90;103293.66;5013789;28;20049;-59
2022/03/25 10:48:26;;;;;;;51.78;27.75;;;;;;;15.95;33.89;103297.59;5011789;28;20044;-50
2022/03/25 10:50:59;;;;;;;50.00;27.38;;;;;;;15.75;32.84;103297.88;5022807;28;20061;-53
2022/03/25 10:53:27;;;;;;;53.42;28.17;;;;;;;15.89;32.78;103298.31;5020404;28;20055;-52
2022/03/25 10:55:55;;;;;;;44.17;24.60;;;;;;;15.71;32.23;103292.50;5020107;28;20048;-53
2022/03/25 10:58:20;;;;;;;49.10;25.13;;;;;;;15.98;31.85;103298.56;5008836;28;20040;-52
2022/03/25 11:00:46;;;;;;;49.08;25.67;;;;;;;16.27;31.47;103296.81;5006332;28;22086;-54
2022/03/25 11:03:16;;;;;;;49.33;25.05;;;;;;;16.39;31.78;103299.78;5008882;28;20063;-58
2022/03/25 11:05:43;;;;;;;49.42;24.60;;;;;;;16.36;31.50;103289.16;5019131;28;20571;-54
2022/03/25 11:08:09;;;;;;;49.40;24.90;;;;;;;16.56;31.45;103292.34;5014671;28;20045;-50
2022/03/25 11:10:35;;;;;;;44.67;24.90;;;;;;;16.46;31.46;103287.69;5016776;28;20055;-54
2022/03/25 11:13:03;;;;;;;47.83;25.92;;;;;;;16.56;31.38;103289.72;5008943;28;20273;-54